sensor_id;sensor_type;location;lat;lon;timestamp;P1;durP1;ratioP1;P2;durP2;ratioP2
37859;SDS011;23698;52.014;5.190;2023-03-03T00:02:37;35.13;;;15.95;;
37859;SDS011;23698;52.014;5.190;2023-03-03T00:05:25;36.90;;;16.00;;
37859;SDS011;23698;52.014;5.190;2023-03-03T00:08:11;30.88;;;15.10;;
37859;SDS011;23698;52.014;5.190;2023-03-03T00:10:58;31.13;;;14.18;;
37859;SDS011;23698;52.014;5.190;2023-03-03T00:13:49;31.83;;;14.50;;
37859;SDS011;23698;52.014;5.190;2023-03-03T00:16:36;31.58;;;15.02;;
37859;SDS011;23698;52.014;5.190;2023-03-03T00:19:23;26.75;;;13.65;;
37859;SDS011;23698;52.014;5.190;2023-03-03T00:22:15;33.78;;;14.38;;
37859;SDS011;23698;52.014;5.190;2023-03-03T00:25:20;24.17;;;12.32;;
37859;SDS011;23698;52.014;5.190;2023-03-03T00:28:24;26.48;;;12.63;;
37859;SDS011;23698;52.014;5.190;2023-03-03T00:31:14;23.50;;;12.57;;
37859;SDS011;23698;52.014;5.190;2023-03-03T00:34:09;25.23;;;11.75;;
37859;SDS011;23698;52.014;5.190;2023-03-03T00:37:13;27.88;;;14.05;;
37859;SDS011;23698;52.014;5.190;2023-03-03T00:40:17;24.13;;;11.68;;
37859;SDS011;23698;52.014;5.190;2023-03-03T00:43:11;24.40;;;12.52;;
37859;SDS011;23698;52.014;5.190;2023-03-03T00:46:02;27.10;;;12.43;;
37859;SDS011;23698;52.014;5.190;2023-03-03T00:48:49;23.55;;;12.85;;
37859;SDS011;23698;52.014;5.190;2023-03-03T00:51:36;23.60;;;12.38;;
37859;SDS011;23698;52.014;5.190;2023-03-03T00:54:24;25.00;;;13.05;;
37859;SDS011;23698;52.014;5.190;2023-03-03T00:57:11;27.73;;;13.30;;
37859;SDS011;23698;52.014;5.190;2023-03-03T00:59:59;26.90;;;13.82;;
37859;SDS011;23698;52.014;5.190;2023-03-03T01:02:47;26.42;;;13.15;;
37859;SDS011;23698;52.014;5.190;2023-03-03T01:05:35;28.33;;;13.93;;
37859;SDS011;23698;52.014;5.190;2023-03-03T01:08:21;30.75;;;14.05;;
37859;SDS011;23698;52.014;5.190;2023-03-03T01:11:10;28.55;;;14.15;;
37859;SDS011;23698;52.014;5.190;2023-03-03T01:14:00;27.83;;;14.05;;
37859;SDS011;23698;52.014;5.190;2023-03-03T01:16:46;28.83;;;14.43;;
37859;SDS011;23698;52.014;5.190;2023-03-03T01:19:35;32.00;;;15.50;;
37859;SDS011;23698;52.014;5.190;2023-03-03T01:22:21;31.08;;;16.02;;
37859;SDS011;23698;52.014;5.190;2023-03-03T01:25:08;34.67;;;15.82;;
37859;SDS011;23698;52.014;5.190;2023-03-03T01:27:56;36.10;;;16.15;;
37859;SDS011;23698;52.014;5.190;2023-03-03T01:30:43;34.85;;;16.17;;
37859;SDS011;23698;52.014;5.190;2023-03-03T01:33:30;33.00;;;15.82;;
37859;SDS011;23698;52.014;5.190;2023-03-03T01:36:21;31.02;;;16.10;;
37859;SDS011;23698;52.014;5.190;2023-03-03T01:39:09;33.63;;;15.68;;
37859;SDS011;23698;52.014;5.190;2023-03-03T01:41:55;31.83;;;15.82;;
37859;SDS011;23698;52.014;5.190;2023-03-03T01:44:43;32.92;;;16.75;;
37859;SDS011;23698;52.014;5.190;2023-03-03T01:47:29;31.48;;;15.13;;
37859;SDS011;23698;52.014;5.190;2023-03-03T01:50:20;29.13;;;15.63;;
37859;SDS011;23698;52.014;5.190;2023-03-03T01:53:19;34.67;;;15.90;;
37859;SDS011;23698;52.014;5.190;2023-03-03T01:56:08;30.58;;;16.08;;
37859;SDS011;23698;52.014;5.190;2023-03-03T01:58:57;35.63;;;16.23;;
37859;SDS011;23698;52.014;5.190;2023-03-03T02:01:48;36.70;;;17.33;;
37859;SDS011;23698;52.014;5.190;2023-03-03T02:04:35;38.55;;;17.33;;
37859;SDS011;23698;52.014;5.190;2023-03-03T02:07:22;39.40;;;17.88;;
37859;SDS011;23698;52.014;5.190;2023-03-03T02:10:14;34.15;;;16.70;;
37859;SDS011;23698;52.014;5.190;2023-03-03T02:13:02;42.03;;;17.92;;
37859;SDS011;23698;52.014;5.190;2023-03-03T02:15:48;34.42;;;16.58;;
37859;SDS011;23698;52.014;5.190;2023-03-03T02:18:36;37.10;;;17.08;;
37859;SDS011;23698;52.014;5.190;2023-03-03T02:21:23;38.85;;;17.80;;
37859;SDS011;23698;52.014;5.190;2023-03-03T02:24:12;39.33;;;17.38;;
37859;SDS011;23698;52.014;5.190;2023-03-03T02:27:05;38.53;;;17.85;;
37859;SDS011;23698;52.014;5.190;2023-03-03T02:29:52;42.60;;;18.35;;
37859;SDS011;23698;52.014;5.190;2023-03-03T02:32:38;40.35;;;17.70;;
37859;SDS011;23698;52.014;5.190;2023-03-03T02:35:29;39.47;;;17.85;;
37859;SDS011;23698;52.014;5.190;2023-03-03T02:38:20;39.20;;;18.33;;
37859;SDS011;23698;52.014;5.190;2023-03-03T02:41:12;45.05;;;18.90;;
37859;SDS011;23698;52.014;5.190;2023-03-03T02:44:09;41.80;;;19.08;;
37859;SDS011;23698;52.014;5.190;2023-03-03T02:46:57;41.08;;;18.10;;
37859;SDS011;23698;52.014;5.190;2023-03-03T02:49:45;44.90;;;18.48;;
37859;SDS011;23698;52.014;5.190;2023-03-03T02:52:31;45.97;;;19.25;;
37859;SDS011;23698;52.014;5.190;2023-03-03T02:55:18;45.50;;;18.80;;
37859;SDS011;23698;52.014;5.190;2023-03-03T02:58:04;42.83;;;18.75;;
37859;SDS011;23698;52.014;5.190;2023-03-03T03:00:52;39.25;;;18.38;;
37859;SDS011;23698;52.014;5.190;2023-03-03T03:03:40;45.47;;;18.90;;
37859;SDS011;23698;52.014;5.190;2023-03-03T03:06:27;48.17;;;19.38;;
37859;SDS011;23698;52.014;5.190;2023-03-03T03:09:14;42.03;;;17.65;;
37859;SDS011;23698;52.014;5.190;2023-03-03T03:12:03;44.20;;;19.05;;
37859;SDS011;23698;52.014;5.190;2023-03-03T03:14:52;39.97;;;15.98;;
37859;SDS011;23698;52.014;5.190;2023-03-03T03:17:40;48.28;;;17.83;;
37859;SDS011;23698;52.014;5.190;2023-03-03T03:20:28;43.28;;;17.80;;
37859;SDS011;23698;52.014;5.190;2023-03-03T03:23:15;41.22;;;15.85;;
37859;SDS011;23698;52.014;5.190;2023-03-03T03:26:02;35.97;;;16.13;;
37859;SDS011;23698;52.014;5.190;2023-03-03T03:28:49;41.90;;;16.77;;
37859;SDS011;23698;52.014;5.190;2023-03-03T03:31:36;39.38;;;16.10;;
37859;SDS011;23698;52.014;5.190;2023-03-03T03:34:24;45.88;;;17.20;;
37859;SDS011;23698;52.014;5.190;2023-03-03T03:37:13;43.53;;;17.42;;
37859;SDS011;23698;52.014;5.190;2023-03-03T03:40:03;41.88;;;17.75;;
37859;SDS011;23698;52.014;5.190;2023-03-03T03:42:51;48.30;;;17.67;;
37859;SDS011;23698;52.014;5.190;2023-03-03T03:45:37;50.00;;;18.23;;
37859;SDS011;23698;52.014;5.190;2023-03-03T03:48:24;51.08;;;19.13;;
37859;SDS011;23698;52.014;5.190;2023-03-03T03:51:14;46.10;;;18.80;;
37859;SDS011;23698;52.014;5.190;2023-03-03T03:54:00;51.58;;;19.48;;
37859;SDS011;23698;52.014;5.190;2023-03-03T03:56:47;49.15;;;18.65;;
37859;SDS011;23698;52.014;5.190;2023-03-03T03:59:33;48.45;;;19.08;;
37859;SDS011;23698;52.014;5.190;2023-03-03T04:02:20;44.25;;;18.52;;
37859;SDS011;23698;52.014;5.190;2023-03-03T04:05:08;49.22;;;18.98;;
37859;SDS011;23698;52.014;5.190;2023-03-03T04:07:56;42.22;;;17.83;;
37859;SDS011;23698;52.014;5.190;2023-03-03T04:10:43;46.85;;;19.13;;
37859;SDS011;23698;52.014;5.190;2023-03-03T04:13:29;48.50;;;18.58;;
37859;SDS011;23698;52.014;5.190;2023-03-03T04:16:20;45.67;;;17.75;;
37859;SDS011;23698;52.014;5.190;2023-03-03T04:19:07;45.78;;;18.42;;
37859;SDS011;23698;52.014;5.190;2023-03-03T04:21:55;44.90;;;18.05;;
37859;SDS011;23698;52.014;5.190;2023-03-03T04:24:43;42.40;;;16.02;;
37859;SDS011;23698;52.014;5.190;2023-03-03T04:27:34;42.97;;;17.95;;
37859;SDS011;23698;52.014;5.190;2023-03-03T04:30:22;41.65;;;16.98;;
37859;SDS011;23698;52.014;5.190;2023-03-03T04:33:11;41.70;;;16.15;;
37859;SDS011;23698;52.014;5.190;2023-03-03T04:35:58;43.45;;;17.75;;
37859;SDS011;23698;52.014;5.190;2023-03-03T04:38:45;48.58;;;19.05;;
37859;SDS011;23698;52.014;5.190;2023-03-03T04:41:34;42.95;;;18.20;;
37859;SDS011;23698;52.014;5.190;2023-03-03T04:44:21;50.15;;;18.88;;
37859;SDS011;23698;52.014;5.190;2023-03-03T04:47:09;45.60;;;18.83;;
37859;SDS011;23698;52.014;5.190;2023-03-03T04:49:55;46.63;;;19.38;;
37859;SDS011;23698;52.014;5.190;2023-03-03T04:52:42;46.05;;;20.42;;
37859;SDS011;23698;52.014;5.190;2023-03-03T04:55:30;46.28;;;19.85;;
37859;SDS011;23698;52.014;5.190;2023-03-03T04:58:18;46.08;;;17.23;;
37859;SDS011;23698;52.014;5.190;2023-03-03T05:01:05;50.25;;;19.10;;
37859;SDS011;23698;52.014;5.190;2023-03-03T05:03:52;47.42;;;19.75;;
37859;SDS011;23698;52.014;5.190;2023-03-03T05:06:39;47.65;;;18.63;;
37859;SDS011;23698;52.014;5.190;2023-03-03T05:09:26;45.30;;;18.67;;
37859;SDS011;23698;52.014;5.190;2023-03-03T05:12:12;47.65;;;18.00;;
37859;SDS011;23698;52.014;5.190;2023-03-03T05:15:00;44.10;;;17.15;;
37859;SDS011;23698;52.014;5.190;2023-03-03T05:17:46;45.60;;;17.50;;
37859;SDS011;23698;52.014;5.190;2023-03-03T05:20:33;47.60;;;17.63;;
37859;SDS011;23698;52.014;5.190;2023-03-03T05:23:19;43.17;;;16.83;;
37859;SDS011;23698;52.014;5.190;2023-03-03T05:26:07;47.90;;;17.73;;
37859;SDS011;23698;52.014;5.190;2023-03-03T05:28:53;43.17;;;15.23;;
37859;SDS011;23698;52.014;5.190;2023-03-03T05:31:41;44.33;;;16.83;;
37859;SDS011;23698;52.014;5.190;2023-03-03T05:34:29;43.30;;;16.00;;
37859;SDS011;23698;52.014;5.190;2023-03-03T05:37:16;42.40;;;15.57;;
37859;SDS011;23698;52.014;5.190;2023-03-03T05:40:03;41.20;;;15.18;;
37859;SDS011;23698;52.014;5.190;2023-03-03T05:42:50;42.80;;;15.35;;
37859;SDS011;23698;52.014;5.190;2023-03-03T05:45:37;45.45;;;14.98;;
37859;SDS011;23698;52.014;5.190;2023-03-03T05:48:25;43.55;;;14.43;;
37859;SDS011;23698;52.014;5.190;2023-03-03T05:51:11;43.67;;;14.20;;
37859;SDS011;23698;52.014;5.190;2023-03-03T05:53:58;38.47;;;14.52;;
37859;SDS011;23698;52.014;5.190;2023-03-03T05:56:44;36.85;;;14.13;;
37859;SDS011;23698;52.014;5.190;2023-03-03T05:59:31;40.08;;;13.93;;
37859;SDS011;23698;52.014;5.190;2023-03-03T06:02:17;37.90;;;13.38;;
37859;SDS011;23698;52.014;5.190;2023-03-03T06:05:06;41.72;;;15.02;;
37859;SDS011;23698;52.014;5.190;2023-03-03T06:07:53;40.55;;;14.50;;
37859;SDS011;23698;52.014;5.190;2023-03-03T06:10:39;38.70;;;13.80;;
37859;SDS011;23698;52.014;5.190;2023-03-03T06:13:28;41.70;;;14.73;;
37859;SDS011;23698;52.014;5.190;2023-03-03T06:16:15;40.90;;;14.27;;
37859;SDS011;23698;52.014;5.190;2023-03-03T06:19:02;39.55;;;14.43;;
37859;SDS011;23698;52.014;5.190;2023-03-03T06:21:49;41.55;;;14.65;;
37859;SDS011;23698;52.014;5.190;2023-03-03T06:24:35;42.70;;;13.48;;
37859;SDS011;23698;52.014;5.190;2023-03-03T06:27:22;36.30;;;13.60;;
37859;SDS011;23698;52.014;5.190;2023-03-03T06:30:09;41.67;;;14.02;;
37859;SDS011;23698;52.014;5.190;2023-03-03T06:32:57;40.85;;;13.68;;
37859;SDS011;23698;52.014;5.190;2023-03-03T06:35:43;44.40;;;14.15;;
37859;SDS011;23698;52.014;5.190;2023-03-03T06:38:31;42.58;;;14.68;;
37859;SDS011;23698;52.014;5.190;2023-03-03T06:41:18;44.22;;;13.57;;
37859;SDS011;23698;52.014;5.190;2023-03-03T06:44:04;36.45;;;12.98;;
37859;SDS011;23698;52.014;5.190;2023-03-03T06:46:51;40.15;;;13.95;;
37859;SDS011;23698;52.014;5.190;2023-03-03T06:49:41;42.97;;;13.48;;
37859;SDS011;23698;52.014;5.190;2023-03-03T06:52:28;43.50;;;14.25;;
37859;SDS011;23698;52.014;5.190;2023-03-03T06:55:17;35.20;;;13.27;;
37859;SDS011;23698;52.014;5.190;2023-03-03T06:58:09;35.92;;;12.23;;
37859;SDS011;23698;52.014;5.190;2023-03-03T07:00:59;34.28;;;11.90;;
37859;SDS011;23698;52.014;5.190;2023-03-03T07:03:46;32.50;;;13.32;;
37859;SDS011;23698;52.014;5.190;2023-03-03T07:06:33;40.33;;;14.15;;
37859;SDS011;23698;52.014;5.190;2023-03-03T07:09:20;36.78;;;13.27;;
37859;SDS011;23698;52.014;5.190;2023-03-03T07:12:11;35.38;;;12.93;;
37859;SDS011;23698;52.014;5.190;2023-03-03T07:15:01;37.30;;;13.15;;
37859;SDS011;23698;52.014;5.190;2023-03-03T07:17:59;32.38;;;11.93;;
37859;SDS011;23698;52.014;5.190;2023-03-03T07:20:46;44.00;;;13.20;;
37859;SDS011;23698;52.014;5.190;2023-03-03T07:23:35;36.42;;;11.75;;
37859;SDS011;23698;52.014;5.190;2023-03-03T07:26:27;32.90;;;12.13;;
37859;SDS011;23698;52.014;5.190;2023-03-03T07:29:20;34.17;;;11.88;;
37859;SDS011;23698;52.014;5.190;2023-03-03T07:32:14;32.60;;;13.45;;
37859;SDS011;23698;52.014;5.190;2023-03-03T07:35:18;42.53;;;13.05;;
37859;SDS011;23698;52.014;5.190;2023-03-03T07:38:22;31.05;;;11.35;;
37859;SDS011;23698;52.014;5.190;2023-03-03T07:41:11;39.97;;;12.20;;
37859;SDS011;23698;52.014;5.190;2023-03-03T07:44:05;39.88;;;12.07;;
37859;SDS011;23698;52.014;5.190;2023-03-03T07:46:58;31.13;;;11.55;;
37859;SDS011;23698;52.014;5.190;2023-03-03T07:49:59;32.50;;;11.50;;
37859;SDS011;23698;52.014;5.190;2023-03-03T07:52:54;29.80;;;10.70;;
37859;SDS011;23698;52.014;5.190;2023-03-03T07:55:41;34.92;;;11.43;;
37859;SDS011;23698;52.014;5.190;2023-03-03T07:58:35;36.38;;;11.40;;
37859;SDS011;23698;52.014;5.190;2023-03-03T08:04:31;28.33;;;11.55;;
37859;SDS011;23698;52.014;5.190;2023-03-03T08:07:24;35.33;;;12.48;;
37859;SDS011;23698;52.014;5.190;2023-03-03T08:10:24;27.02;;;11.60;;
37859;SDS011;23698;52.014;5.190;2023-03-03T08:13:20;29.52;;;10.82;;
37859;SDS011;23698;52.014;5.190;2023-03-03T08:16:20;26.40;;;10.77;;
37859;SDS011;23698;52.014;5.190;2023-03-03T08:19:15;29.52;;;10.60;;
37859;SDS011;23698;52.014;5.190;2023-03-03T08:22:08;26.75;;;11.20;;
37859;SDS011;23698;52.014;5.190;2023-03-03T08:24:59;25.73;;;10.18;;
37859;SDS011;23698;52.014;5.190;2023-03-03T08:27:46;29.42;;;10.73;;
37859;SDS011;23698;52.014;5.190;2023-03-03T08:30:32;29.15;;;11.20;;
37859;SDS011;23698;52.014;5.190;2023-03-03T08:33:19;29.95;;;11.25;;
37859;SDS011;23698;52.014;5.190;2023-03-03T08:38:54;29.73;;;10.60;;
37859;SDS011;23698;52.014;5.190;2023-03-03T08:41:40;27.85;;;11.13;;
37859;SDS011;23698;52.014;5.190;2023-03-03T08:44:28;25.10;;;11.10;;
37859;SDS011;23698;52.014;5.190;2023-03-03T08:47:14;25.25;;;9.88;;
37859;SDS011;23698;52.014;5.190;2023-03-03T08:50:01;29.45;;;10.20;;
37859;SDS011;23698;52.014;5.190;2023-03-03T08:52:47;27.27;;;10.50;;
37859;SDS011;23698;52.014;5.190;2023-03-03T08:55:35;25.17;;;9.38;;
37859;SDS011;23698;52.014;5.190;2023-03-03T08:58:22;24.98;;;9.98;;
37859;SDS011;23698;52.014;5.190;2023-03-03T09:01:19;30.60;;;10.60;;
37859;SDS011;23698;52.014;5.190;2023-03-03T09:04:06;26.23;;;9.75;;
37859;SDS011;23698;52.014;5.190;2023-03-03T09:06:52;26.08;;;9.52;;
37859;SDS011;23698;52.014;5.190;2023-03-03T09:09:39;24.42;;;9.88;;
37859;SDS011;23698;52.014;5.190;2023-03-03T09:12:29;26.00;;;9.95;;
37859;SDS011;23698;52.014;5.190;2023-03-03T09:15:19;22.30;;;9.95;;
37859;SDS011;23698;52.014;5.190;2023-03-03T09:18:10;22.30;;;9.57;;
37859;SDS011;23698;52.014;5.190;2023-03-03T09:21:00;24.65;;;9.82;;
37859;SDS011;23698;52.014;5.190;2023-03-03T09:23:48;20.23;;;9.25;;
37859;SDS011;23698;52.014;5.190;2023-03-03T09:26:42;20.98;;;9.07;;
37859;SDS011;23698;52.014;5.190;2023-03-03T09:29:34;23.52;;;8.63;;
37859;SDS011;23698;52.014;5.190;2023-03-03T09:32:27;20.33;;;8.63;;
37859;SDS011;23698;52.014;5.190;2023-03-03T09:35:34;21.42;;;9.00;;
37859;SDS011;23698;52.014;5.190;2023-03-03T09:38:26;19.70;;;8.68;;
37859;SDS011;23698;52.014;5.190;2023-03-03T09:41:20;22.85;;;7.90;;
37859;SDS011;23698;52.014;5.190;2023-03-03T09:44:28;18.77;;;8.02;;
37859;SDS011;23698;52.014;5.190;2023-03-03T09:47:30;17.02;;;8.00;;
37859;SDS011;23698;52.014;5.190;2023-03-03T09:50:28;22.42;;;8.68;;
37859;SDS011;23698;52.014;5.190;2023-03-03T09:53:24;17.08;;;7.18;;
37859;SDS011;23698;52.014;5.190;2023-03-03T09:56:24;14.88;;;6.68;;
37859;SDS011;23698;52.014;5.190;2023-03-03T09:59:21;16.92;;;8.13;;
37859;SDS011;23698;52.014;5.190;2023-03-03T10:02:28;17.15;;;7.10;;
37859;SDS011;23698;52.014;5.190;2023-03-03T10:05:25;18.55;;;7.63;;
37859;SDS011;23698;52.014;5.190;2023-03-03T10:08:41;16.98;;;7.13;;
37859;SDS011;23698;52.014;5.190;2023-03-03T10:11:40;12.60;;;5.50;;
37859;SDS011;23698;52.014;5.190;2023-03-03T10:17:47;13.38;;;6.15;;
37859;SDS011;23698;52.014;5.190;2023-03-03T10:20:38;12.38;;;6.30;;
37859;SDS011;23698;52.014;5.190;2023-03-03T10:23:42;15.07;;;5.95;;
37859;SDS011;23698;52.014;5.190;2023-03-03T10:26:50;11.88;;;6.38;;
37859;SDS011;23698;52.014;5.190;2023-03-03T10:30:00;10.60;;;5.60;;
37859;SDS011;23698;52.014;5.190;2023-03-03T10:32:57;11.07;;;5.50;;
37859;SDS011;23698;52.014;5.190;2023-03-03T10:39:13;10.82;;;5.30;;
37859;SDS011;23698;52.014;5.190;2023-03-03T10:42:30;10.73;;;5.43;;
37859;SDS011;23698;52.014;5.190;2023-03-03T10:48:59;8.18;;;4.30;;
37859;SDS011;23698;52.014;5.190;2023-03-03T10:52:07;10.18;;;4.10;;
37859;SDS011;23698;52.014;5.190;2023-03-03T10:55:07;8.80;;;3.58;;
37859;SDS011;23698;52.014;5.190;2023-03-03T10:58:09;8.75;;;3.88;;
37859;SDS011;23698;52.014;5.190;2023-03-03T11:01:20;8.75;;;4.38;;
37859;SDS011;23698;52.014;5.190;2023-03-03T11:07:23;7.72;;;3.65;;
37859;SDS011;23698;52.014;5.190;2023-03-03T11:10:17;7.18;;;3.15;;
37859;SDS011;23698;52.014;5.190;2023-03-03T11:13:11;4.82;;;2.88;;
37859;SDS011;23698;52.014;5.190;2023-03-03T11:22:39;6.78;;;3.08;;
37859;SDS011;23698;52.014;5.190;2023-03-03T11:25:31;7.32;;;2.78;;
37859;SDS011;23698;52.014;5.190;2023-03-03T11:28:26;6.28;;;2.65;;
37859;SDS011;23698;52.014;5.190;2023-03-03T11:31:24;5.47;;;2.97;;
37859;SDS011;23698;52.014;5.190;2023-03-03T11:34:20;5.15;;;2.80;;
37859;SDS011;23698;52.014;5.190;2023-03-03T11:37:27;10.85;;;3.08;;
37859;SDS011;23698;52.014;5.190;2023-03-03T11:40:23;10.90;;;3.30;;
37859;SDS011;23698;52.014;5.190;2023-03-03T11:43:14;9.52;;;2.88;;
37859;SDS011;23698;52.014;5.190;2023-03-03T11:46:21;6.65;;;2.78;;
37859;SDS011;23698;52.014;5.190;2023-03-03T11:49:13;4.57;;;2.33;;
37859;SDS011;23698;52.014;5.190;2023-03-03T11:52:12;2.97;;;1.67;;
37859;SDS011;23698;52.014;5.190;2023-03-03T11:55:12;8.10;;;2.13;;
37859;SDS011;23698;52.014;5.190;2023-03-03T11:58:05;5.63;;;1.80;;
37859;SDS011;23698;52.014;5.190;2023-03-03T12:00:58;3.55;;;1.83;;
37859;SDS011;23698;52.014;5.190;2023-03-03T12:03:54;2.92;;;1.67;;
37859;SDS011;23698;52.014;5.190;2023-03-03T12:06:49;7.13;;;1.70;;
37859;SDS011;23698;52.014;5.190;2023-03-03T12:10:02;3.13;;;1.55;;
37859;SDS011;23698;52.014;5.190;2023-03-03T12:13:02;4.93;;;1.42;;
37859;SDS011;23698;52.014;5.190;2023-03-03T12:15:52;3.15;;;1.50;;
37859;SDS011;23698;52.014;5.190;2023-03-03T12:18:52;5.35;;;1.50;;
37859;SDS011;23698;52.014;5.190;2023-03-03T12:21:52;4.57;;;2.15;;
37859;SDS011;23698;52.014;5.190;2023-03-03T12:24:54;7.07;;;2.08;;
37859;SDS011;23698;52.014;5.190;2023-03-03T12:27:51;3.08;;;1.50;;
37859;SDS011;23698;52.014;5.190;2023-03-03T12:34:10;2.17;;;0.88;;
37859;SDS011;23698;52.014;5.190;2023-03-03T12:37:05;3.83;;;0.93;;
37859;SDS011;23698;52.014;5.190;2023-03-03T12:40:06;2.22;;;1.15;;
37859;SDS011;23698;52.014;5.190;2023-03-03T12:43:00;3.90;;;1.17;;
37859;SDS011;23698;52.014;5.190;2023-03-03T12:45:59;2.30;;;0.82;;
37859;SDS011;23698;52.014;5.190;2023-03-03T12:48:53;2.08;;;0.90;;
37859;SDS011;23698;52.014;5.190;2023-03-03T12:51:46;3.03;;;1.20;;
37859;SDS011;23698;52.014;5.190;2023-03-03T12:54:56;2.90;;;1.38;;
37859;SDS011;23698;52.014;5.190;2023-03-03T12:57:55;6.47;;;1.10;;
37859;SDS011;23698;52.014;5.190;2023-03-03T13:00:50;3.03;;;1.20;;
37859;SDS011;23698;52.014;5.190;2023-03-03T13:03:48;4.43;;;1.38;;
37859;SDS011;23698;52.014;5.190;2023-03-03T13:06:45;2.90;;;1.00;;
37859;SDS011;23698;52.014;5.190;2023-03-03T13:09:39;5.75;;;1.30;;
37859;SDS011;23698;52.014;5.190;2023-03-03T13:12:42;3.42;;;1.08;;
37859;SDS011;23698;52.014;5.190;2023-03-03T13:18:24;3.97;;;1.27;;
37859;SDS011;23698;52.014;5.190;2023-03-03T13:21:23;2.10;;;0.98;;
37859;SDS011;23698;52.014;5.190;2023-03-03T13:24:17;2.65;;;0.88;;
37859;SDS011;23698;52.014;5.190;2023-03-03T13:27:08;1.58;;;0.80;;
37859;SDS011;23698;52.014;5.190;2023-03-03T13:29:58;2.38;;;1.00;;
37859;SDS011;23698;52.014;5.190;2023-03-03T13:32:48;1.30;;;0.80;;
37859;SDS011;23698;52.014;5.190;2023-03-03T13:35:41;3.35;;;0.60;;
37859;SDS011;23698;52.014;5.190;2023-03-03T13:38:34;1.65;;;0.90;;
37859;SDS011;23698;52.014;5.190;2023-03-03T13:41:27;1.75;;;1.00;;
37859;SDS011;23698;52.014;5.190;2023-03-03T13:44:19;3.17;;;0.80;;
37859;SDS011;23698;52.014;5.190;2023-03-03T13:47:12;3.17;;;1.20;;
37859;SDS011;23698;52.014;5.190;2023-03-03T13:50:03;4.07;;;1.38;;
37859;SDS011;23698;52.014;5.190;2023-03-03T13:53:10;2.60;;;1.00;;
37859;SDS011;23698;52.014;5.190;2023-03-03T13:56:15;3.53;;;1.40;;
37859;SDS011;23698;52.014;5.190;2023-03-03T13:59:14;4.10;;;1.45;;
37859;SDS011;23698;52.014;5.190;2023-03-03T14:02:16;4.07;;;1.27;;
37859;SDS011;23698;52.014;5.190;2023-03-03T14:05:20;3.10;;;1.00;;
37859;SDS011;23698;52.014;5.190;2023-03-03T14:08:15;2.90;;;1.33;;
37859;SDS011;23698;52.014;5.190;2023-03-03T14:11:12;3.50;;;1.00;;
37859;SDS011;23698;52.014;5.190;2023-03-03T14:14:11;3.00;;;1.13;;
37859;SDS011;23698;52.014;5.190;2023-03-03T14:17:08;5.50;;;1.33;;
37859;SDS011;23698;52.014;5.190;2023-03-03T14:20:03;6.13;;;1.40;;
37859;SDS011;23698;52.014;5.190;2023-03-03T14:23:00;3.58;;;1.42;;
37859;SDS011;23698;52.014;5.190;2023-03-03T14:25:49;4.45;;;1.60;;
37859;SDS011;23698;52.014;5.190;2023-03-03T14:28:40;2.50;;;0.85;;
37859;SDS011;23698;52.014;5.190;2023-03-03T14:31:29;6.10;;;1.02;;
37859;SDS011;23698;52.014;5.190;2023-03-03T14:34:28;3.00;;;0.82;;
37859;SDS011;23698;52.014;5.190;2023-03-03T14:37:21;1.27;;;0.45;;
37859;SDS011;23698;52.014;5.190;2023-03-03T14:40:14;2.78;;;0.88;;
37859;SDS011;23698;52.014;5.190;2023-03-03T14:43:05;2.47;;;0.90;;
37859;SDS011;23698;52.014;5.190;2023-03-03T14:49:27;2.72;;;0.70;;
37859;SDS011;23698;52.014;5.190;2023-03-03T14:52:19;2.38;;;0.77;;
37859;SDS011;23698;52.014;5.190;2023-03-03T14:55:28;1.65;;;0.75;;
37859;SDS011;23698;52.014;5.190;2023-03-03T14:58:25;4.97;;;1.20;;
37859;SDS011;23698;52.014;5.190;2023-03-03T15:01:15;2.60;;;0.93;;
37859;SDS011;23698;52.014;5.190;2023-03-03T15:04:09;3.20;;;0.88;;
37859;SDS011;23698;52.014;5.190;2023-03-03T15:07:14;6.18;;;0.88;;
37859;SDS011;23698;52.014;5.190;2023-03-03T15:10:12;4.05;;;0.80;;
37859;SDS011;23698;52.014;5.190;2023-03-03T15:13:28;2.03;;;0.80;;
37859;SDS011;23698;52.014;5.190;2023-03-03T15:16:19;1.80;;;0.77;;
37859;SDS011;23698;52.014;5.190;2023-03-03T15:25:41;1.20;;;0.63;;
37859;SDS011;23698;52.014;5.190;2023-03-03T15:28:40;1.48;;;0.63;;
37859;SDS011;23698;52.014;5.190;2023-03-03T15:31:41;1.00;;;0.60;;
37859;SDS011;23698;52.014;5.190;2023-03-03T15:34:36;4.55;;;1.02;;
37859;SDS011;23698;52.014;5.190;2023-03-03T15:37:36;2.60;;;0.80;;
37859;SDS011;23698;52.014;5.190;2023-03-03T15:43:21;2.45;;;0.65;;
37859;SDS011;23698;52.014;5.190;2023-03-03T15:46:14;3.08;;;0.93;;
37859;SDS011;23698;52.014;5.190;2023-03-03T15:49:13;0.90;;;0.75;;
37859;SDS011;23698;52.014;5.190;2023-03-03T15:52:09;3.03;;;0.80;;
37859;SDS011;23698;52.014;5.190;2023-03-03T15:55:13;3.28;;;1.20;;
37859;SDS011;23698;52.014;5.190;2023-03-03T15:58:18;6.70;;;2.78;;
37859;SDS011;23698;52.014;5.190;2023-03-03T16:01:25;4.63;;;1.00;;
37859;SDS011;23698;52.014;5.190;2023-03-03T16:04:15;7.93;;;1.00;;
37859;SDS011;23698;52.014;5.190;2023-03-03T16:07:05;2.40;;;0.80;;
37859;SDS011;23698;52.014;5.190;2023-03-03T16:10:03;1.23;;;0.90;;
37859;SDS011;23698;52.014;5.190;2023-03-03T16:13:01;2.35;;;0.98;;
37859;SDS011;23698;52.014;5.190;2023-03-03T16:16:07;0.85;;;0.70;;
37859;SDS011;23698;52.014;5.190;2023-03-03T16:19:05;3.70;;;1.45;;
37859;SDS011;23698;52.014;5.190;2023-03-03T16:22:12;1.38;;;0.60;;
37859;SDS011;23698;52.014;5.190;2023-03-03T16:25:17;4.93;;;0.70;;
37859;SDS011;23698;52.014;5.190;2023-03-03T16:28:14;3.75;;;0.80;;
37859;SDS011;23698;52.014;5.190;2023-03-03T16:31:06;2.50;;;0.90;;
37859;SDS011;23698;52.014;5.190;2023-03-03T16:33:59;2.92;;;1.23;;
37859;SDS011;23698;52.014;5.190;2023-03-03T16:36:53;1.98;;;0.77;;
37859;SDS011;23698;52.014;5.190;2023-03-03T16:39:50;2.58;;;0.88;;
37859;SDS011;23698;52.014;5.190;2023-03-03T16:42:40;1.15;;;0.70;;
37859;SDS011;23698;52.014;5.190;2023-03-03T16:45:28;3.53;;;1.05;;
37859;SDS011;23698;52.014;5.190;2023-03-03T16:48:23;3.13;;;0.95;;
37859;SDS011;23698;52.014;5.190;2023-03-03T16:51:20;3.15;;;1.17;;
37859;SDS011;23698;52.014;5.190;2023-03-03T16:54:15;10.38;;;1.95;;
37859;SDS011;23698;52.014;5.190;2023-03-03T16:57:09;6.32;;;1.63;;
37859;SDS011;23698;52.014;5.190;2023-03-03T17:00:03;5.97;;;2.13;;
37859;SDS011;23698;52.014;5.190;2023-03-03T17:03:00;5.68;;;1.58;;
37859;SDS011;23698;52.014;5.190;2023-03-03T17:05:59;5.38;;;1.30;;
37859;SDS011;23698;52.014;5.190;2023-03-03T17:08:57;6.68;;;1.40;;
37859;SDS011;23698;52.014;5.190;2023-03-03T17:12:24;3.38;;;1.52;;
37859;SDS011;23698;52.014;5.190;2023-03-03T17:15:22;6.70;;;1.20;;
37859;SDS011;23698;52.014;5.190;2023-03-03T17:18:21;8.07;;;1.90;;
37859;SDS011;23698;52.014;5.190;2023-03-03T17:21:19;6.22;;;1.75;;
37859;SDS011;23698;52.014;5.190;2023-03-03T17:24:15;6.63;;;1.83;;
37859;SDS011;23698;52.014;5.190;2023-03-03T17:27:11;5.53;;;2.40;;
37859;SDS011;23698;52.014;5.190;2023-03-03T17:30:05;5.35;;;1.55;;
37859;SDS011;23698;52.014;5.190;2023-03-03T17:33:11;5.93;;;1.50;;
37859;SDS011;23698;52.014;5.190;2023-03-03T17:36:17;6.00;;;1.50;;
37859;SDS011;23698;52.014;5.190;2023-03-03T17:39:17;4.60;;;1.42;;
37859;SDS011;23698;52.014;5.190;2023-03-03T17:42:19;10.95;;;1.40;;
37859;SDS011;23698;52.014;5.190;2023-03-03T17:45:11;7.90;;;1.55;;
37859;SDS011;23698;52.014;5.190;2023-03-03T17:48:03;7.40;;;1.77;;
37859;SDS011;23698;52.014;5.190;2023-03-03T17:51:07;7.50;;;1.65;;